Time;durP1;ratioP1;P1;durP2;ratioP2;P2;SDS_P1;SDS_P2;PMS_P1;PMS_P2;Temp;Humidity;BMP_temperature;BMP_pressure;BME280_temperature;BME280_humidity;BME280_pressure;Samples;Min_cycle;Max_cycle;Signal;HPM_P1;HPM_P2
2022/06/30 00:02:10;;;;;;;4.32;2.33;;;22.00;99.90;;;;;;5014469;28;20026;-83
2022/06/30 00:04:36;;;;;;;7.15;2.45;;;22.00;99.90;;;;;;5014862;28;20102;-83
2022/06/30 00:07:02;;;;;;;3.15;2.35;;;21.90;99.90;;;;;;5014508;28;20032;-83
2022/06/30 00:09:28;;;;;;;5.00;2.22;;;21.90;99.90;;;;;;4996910;28;20452;-82
2022/06/30 00:11:53;;;;;;;3.08;2.42;;;21.90;99.90;;;;;;5014481;28;20033;-83
2022/06/30 00:14:19;;;;;;;3.80;2.50;;;21.80;99.90;;;;;;5013815;28;20022;-83
2022/06/30 00:16:45;;;;;;;4.22;2.20;;;21.70;99.90;;;;;;5014521;28;20034;-83
2022/06/30 00:19:10;;;;;;;4.10;2.28;;;21.70;99.90;;;;;;5013062;28;20037;-83
2022/06/30 00:21:36;;;;;;;2.97;2.22;;;21.70;99.90;;;;;;5014656;28;20037;-83
2022/06/30 00:24:02;;;;;;;3.60;2.38;;;21.70;99.90;;;;;;5012791;28;20179;-83
2022/06/30 00:26:28;;;;;;;4.75;2.25;;;21.60;99.90;;;;;;4997299;28;20430;-83
2022/06/30 00:28:53;;;;;;;3.03;2.28;;;21.70;99.90;;;;;;4997021;28;20065;-83
2022/06/30 00:31:19;;;;;;;3.63;2.25;;;21.60;99.90;;;;;;4996425;28;20625;-83
2022/06/30 00:33:44;;;;;;;4.43;2.28;;;21.60;99.90;;;;;;5013317;28;20069;-83
2022/06/30 00:36:10;;;;;;;3.58;1.98;;;21.60;99.90;;;;;;5014285;28;20022;-81
2022/06/30 00:38:38;;;;;;;3.17;2.00;;;21.60;99.90;;;;;;5013322;28;20490;-83
2022/06/30 00:41:03;;;;;;;4.63;2.47;;;21.60;99.90;;;;;;5013036;28;20072;-83
2022/06/30 00:43:29;;;;;;;3.70;2.25;;;21.50;99.90;;;;;;4996935;28;20050;-83
2022/06/30 00:45:55;;;;;;;3.15;2.20;;;21.50;99.90;;;;;;5013596;28;20146;-83
2022/06/30 00:48:21;;;;;;;4.60;2.70;;;21.50;99.90;;;;;;5012437;28;20573;-83
2022/06/30 00:50:47;;;;;;;7.05;2.70;;;21.50;99.90;;;;;;5014765;28;20030;-83
2022/06/30 00:53:12;;;;;;;7.55;2.90;;;21.40;99.90;;;;;;5013597;28;20029;-83
2022/06/30 00:55:38;;;;;;;4.22;2.20;;;21.40;99.90;;;;;;5015457;28;20027;-83
2022/06/30 00:58:07;;;;;;;4.38;2.35;;;21.40;99.90;;;;;;4995674;28;20026;-83
2022/06/30 01:00:39;;;;;;;3.47;2.10;;;21.30;99.90;;;;;;4997464;28;20029;-83
2022/06/30 01:03:07;;;;;;;4.18;2.25;;;21.20;99.90;;;;;;5012802;28;20121;-83
2022/06/30 01:05:33;;;;;;;4.55;2.42;;;21.10;99.90;;;;;;4981037;28;20214;-83
2022/06/30 01:08:00;;;;;;;3.90;2.30;;;21.10;99.90;;;;;;4980663;28;20053;-85
2022/06/30 01:13:10;;;;;;;5.15;2.47;;;21.00;99.90;;;;;;5017351;28;20099;-83
2022/06/30 01:15:35;;;;;;;5.93;2.30;;;21.10;99.90;;;;;;5000593;28;20125;-83
2022/06/30 01:18:01;;;;;;;5.40;2.20;;;21.10;99.90;;;;;;5015913;28;20030;-86
2022/06/30 01:20:29;;;;;;;4.35;2.22;;;21.10;99.90;;;;;;4999914;28;20029;-83
2022/06/30 01:22:56;;;;;;;3.42;2.20;;;21.10;99.90;;;;;;4999902;28;20050;-83
2022/06/30 01:25:24;;;;;;;5.50;2.15;;;21.10;99.90;;;;;;4990368;28;20037;-83
2022/06/30 01:27:50;;;;;;;3.38;2.35;;;21.10;99.90;;;;;;4980453;28;20062;-83
2022/06/30 01:30:15;;;;;;;7.13;2.67;;;21.10;99.90;;;;;;4979399;28;20073;-83
2022/06/30 01:32:41;;;;;;;4.20;2.40;;;21.00;99.90;;;;;;4980124;28;20444;-83
2022/06/30 01:35:08;;;;;;;2.33;1.95;;;21.00;99.90;;;;;;4996597;28;20138;-83
2022/06/30 01:37:58;;;;;;;4.20;2.38;;;20.90;99.90;;;;;;4988186;28;20044;-82
2022/06/30 01:40:27;;;;;;;3.55;2.55;;;20.90;99.90;;;;;;4999000;28;20077;-83
2022/06/30 01:42:53;;;;;;;5.28;2.13;;;20.80;99.90;;;;;;4999619;28;20481;-83
2022/06/30 01:45:19;;;;;;;2.47;2.05;;;20.70;99.90;;;;;;4999203;28;20022;-83
2022/06/30 01:47:45;;;;;;;3.88;2.00;;;20.80;99.90;;;;;;5016855;28;20030;-82
2022/06/30 01:50:17;;;;;;;6.72;2.50;;;20.70;99.90;;;;;;4999279;28;20052;-83
2022/06/30 01:52:43;;;;;;;4.82;2.50;;;20.70;99.90;;;;;;5015797;28;20034;-83
2022/06/30 01:55:09;;;;;;;2.35;2.15;;;20.70;99.90;;;;;;5023932;28;20032;-83
2022/06/30 01:57:35;;;;;;;2.33;2.00;;;20.70;99.90;;;;;;5036469;28;20033;-83
2022/06/30 02:00:06;;;;;;;4.60;2.45;;;20.60;99.90;;;;;;5019082;28;20059;-84
2022/06/30 02:02:32;;;;;;;5.88;2.50;;;20.60;99.90;;;;;;5036442;28;20040;-83
2022/06/30 02:04:57;;;;;;;7.72;2.40;;;20.50;99.90;;;;;;5019406;28;20029;-82
2022/06/30 02:07:23;;;;;;;3.33;2.20;;;20.50;99.90;;;;;;5018249;28;20029;-83
2022/06/30 02:09:52;;;;;;;3.33;2.33;;;20.50;99.90;;;;;;5025368;28;20022;-83
2022/06/30 02:15:04;;;;;;;4.00;2.30;;;20.50;99.90;;;;;;5015980;28;20036;-85
2022/06/30 02:17:29;;;;;;;5.32;2.15;;;20.40;99.90;;;;;;5015744;28;20455;-82
2022/06/30 02:19:55;;;;;;;2.50;2.30;;;20.30;99.90;;;;;;5004830;28;20026;-82
2022/06/30 02:22:21;;;;;;;5.65;2.50;;;20.30;99.90;;;;;;4978857;28;20042;-82
2022/06/30 02:24:47;;;;;;;6.55;2.33;;;20.30;99.90;;;;;;4995440;28;20038;-83
2022/06/30 02:27:13;;;;;;;3.10;2.45;;;20.30;99.90;;;;;;4996355;28;20494;-83
2022/06/30 02:29:39;;;;;;;5.35;2.30;;;20.30;99.90;;;;;;4995189;28;20101;-82
2022/06/30 02:32:05;;;;;;;2.47;2.28;;;20.30;99.90;;;;;;4978616;28;20082;-84
2022/06/30 02:34:31;;;;;;;4.22;2.20;;;20.30;99.90;;;;;;5012194;28;20099;-82
2022/06/30 02:36:57;;;;;;;4.32;2.45;;;20.30;99.90;;;;;;5015674;28;20089;-83
2022/06/30 02:39:23;;;;;;;3.03;2.22;;;20.20;99.90;;;;;;5015161;28;20592;-83
2022/06/30 02:41:48;;;;;;;5.80;2.47;;;20.10;99.90;;;;;;4998197;28;20033;-84
2022/06/30 02:44:14;;;;;;;3.67;2.33;;;20.10;99.90;;;;;;5015165;28;20065;-84
2022/06/30 02:46:40;;;;;;;6.07;2.40;;;20.00;99.90;;;;;;4997972;28;20125;-83
2022/06/30 02:49:06;;;;;;;5.00;2.72;;;20.00;99.90;;;;;;4997859;28;20029;-85
2022/06/30 02:51:31;;;;;;;4.75;2.63;;;20.00;99.90;;;;;;5015244;28;20026;-83
2022/06/30 02:53:57;;;;;;;5.57;2.47;;;20.00;99.90;;;;;;4998703;28;20076;-82
2022/06/30 02:56:23;;;;;;;6.35;2.78;;;20.00;99.90;;;;;;4997801;28;20037;-83
2022/06/30 02:58:49;;;;;;;3.45;2.38;;;19.90;99.90;;;;;;4998651;28;20040;-83
2022/06/30 03:01:14;;;;;;;3.40;2.35;;;19.80;99.90;;;;;;5014101;28;20034;-83
2022/06/30 03:03:40;;;;;;;3.95;2.63;;;19.80;99.90;;;;;;5015130;28;20022;-83
2022/06/30 03:06:06;;;;;;;3.85;2.40;;;19.70;99.90;;;;;;4997385;28;20385;-86
2022/06/30 03:08:32;;;;;;;4.18;2.20;;;19.70;99.90;;;;;;4997976;28;20026;-83
2022/06/30 03:10:59;;;;;;;4.65;2.50;;;19.80;99.90;;;;;;5015033;28;20030;-83
2022/06/30 03:13:25;;;;;;;3.60;2.50;;;19.90;99.90;;;;;;5010203;28;20030;-83
2022/06/30 03:15:51;;;;;;;3.90;2.50;;;19.80;99.90;;;;;;4995647;28;20038;-83
2022/06/30 03:18:17;;;;;;;4.60;2.80;;;19.70;99.90;;;;;;4995236;28;20041;-83
2022/06/30 03:20:43;;;;;;;5.00;2.60;;;19.70;99.90;;;;;;4995383;28;20034;-84
2022/06/30 03:23:09;;;;;;;9.07;2.88;;;19.70;99.90;;;;;;4993837;28;20031;-85
2022/06/30 03:25:34;;;;;;;10.20;2.75;;;19.70;99.90;;;;;;4994550;28;20027;-84
2022/06/30 03:28:02;;;;;;;3.40;2.53;;;19.60;99.90;;;;;;4978666;28;20066;-84
2022/06/30 03:30:28;;;;;;;4.30;2.60;;;19.50;99.90;;;;;;4977646;28;20193;-84
2022/06/30 03:32:53;;;;;;;9.13;2.90;;;19.50;99.90;;;;;;4996651;28;20530;-84
2022/06/30 03:35:19;;;;;;;5.80;2.67;;;19.50;99.90;;;;;;5014397;28;20061;-84
2022/06/30 03:37:46;;;;;;;5.28;2.60;;;19.50;99.90;;;;;;5014704;28;20037;-84
2022/06/30 03:40:12;;;;;;;4.90;2.42;;;19.40;99.90;;;;;;4996853;28;20076;-84
2022/06/30 03:42:38;;;;;;;6.82;2.92;;;19.40;99.90;;;;;;4996536;28;20026;-84
2022/06/30 03:45:04;;;;;;;5.25;2.83;;;19.40;99.90;;;;;;5010006;28;20092;-84
2022/06/30 03:47:29;;;;;;;4.57;3.30;;;19.40;99.90;;;;;;4985613;28;20026;-83
2022/06/30 03:49:55;;;;;;;4.68;2.60;;;19.50;99.90;;;;;;5014901;28;20029;-84
2022/06/30 03:52:21;;;;;;;7.40;3.00;;;19.50;99.90;;;;;;5014319;28;20586;-84
2022/06/30 03:54:47;;;;;;;5.18;2.70;;;19.40;99.90;;;;;;5014590;28;20028;-84
2022/06/30 03:57:13;;;;;;;3.05;2.50;;;19.30;99.90;;;;;;4996727;28;20505;-84
2022/06/30 03:59:39;;;;;;;7.40;2.80;;;19.40;99.90;;;;;;5014746;28;20041;-84
2022/06/30 04:02:06;;;;;;;5.28;2.47;;;19.30;99.90;;;;;;5014987;28;20022;-84
2022/06/30 04:04:32;;;;;;;4.05;2.60;;;19.30;99.90;;;;;;5014396;28;20033;-84
2022/06/30 04:06:58;;;;;;;5.47;2.85;;;19.30;99.90;;;;;;5014992;28;20542;-84
2022/06/30 04:09:24;;;;;;;5.63;2.40;;;19.30;99.90;;;;;;5014236;28;20030;-84
2022/06/30 04:11:51;;;;;;;4.60;2.53;;;19.40;99.90;;;;;;5002113;28;20056;-82
2022/06/30 04:14:17;;;;;;;5.32;2.80;;;19.30;99.90;;;;;;4996692;28;20030;-82
2022/06/30 04:16:43;;;;;;;4.15;2.42;;;19.30;99.90;;;;;;4996293;28;20143;-84
2022/06/30 04:19:08;;;;;;;5.50;2.65;;;19.30;99.90;;;;;;4994663;28;20034;-85
2022/06/30 04:21:34;;;;;;;7.20;2.75;;;19.30;99.90;;;;;;4994045;28;20090;-83
2022/06/30 04:24:00;;;;;;;4.78;2.60;;;19.30;99.90;;;;;;4990905;28;20077;-83
2022/06/30 04:26:25;;;;;;;5.05;2.70;;;19.30;99.90;;;;;;5027551;28;20030;-84
2022/06/30 04:28:51;;;;;;;4.63;2.47;;;19.30;99.90;;;;;;5012830;28;20037;-83
2022/06/30 04:34:00;;;;;;;7.50;2.33;;;19.10;99.90;;;;;;5014283;28;20111;-83
2022/06/30 04:36:26;;;;;;;3.08;2.50;;;19.10;99.90;;;;;;4999030;28;20425;-82
2022/06/30 04:38:52;;;;;;;5.40;2.60;;;19.20;99.90;;;;;;4998847;28;20467;-83
2022/06/30 04:41:23;;;;;;;4.60;2.60;;;19.20;99.90;;;;;;5019831;28;20386;-83
2022/06/30 04:43:49;;;;;;;5.15;2.22;;;19.30;99.90;;;;;;5008906;28;20022;-83
2022/06/30 04:46:15;;;;;;;3.85;2.47;;;19.30;99.90;;;;;;5026658;28;20028;-83
2022/06/30 04:48:41;;;;;;;3.30;1.95;;;19.30;99.90;;;;;;5006084;28;20066;-82
2022/06/30 04:51:07;;;;;;;3.20;2.33;;;19.40;99.90;;;;;;5021608;28;20026;-83
2022/06/30 04:53:33;;;;;;;5.68;2.30;;;19.40;99.90;;;;;;5005613;28;20120;-83
2022/06/30 04:55:59;;;;;;;5.65;2.65;;;19.40;99.90;;;;;;5003005;28;20045;-84
2022/06/30 04:58:25;;;;;;;7.25;2.42;;;19.40;99.90;;;;;;5007519;28;20363;-84
2022/06/30 05:00:50;;;;;;;3.75;2.65;;;19.40;99.90;;;;;;5008269;28;20116;-83
2022/06/30 05:03:16;;;;;;;7.50;2.30;;;19.40;99.90;;;;;;5008154;28;20097;-84
2022/06/30 05:05:42;;;;;;;4.25;2.42;;;19.40;99.90;;;;;;5025938;28;20026;-84
2022/06/30 05:08:07;;;;;;;4.07;2.42;;;19.40;99.90;;;;;;5025526;28;20030;-84
2022/06/30 05:10:33;;;;;;;3.42;2.35;;;19.50;99.90;;;;;;5007738;28;20037;-84
2022/06/30 05:12:59;;;;;;;3.75;2.47;;;19.50;99.90;;;;;;5025563;28;20451;-83
2022/06/30 05:15:25;;;;;;;5.30;2.55;;;19.60;99.90;;;;;;5007969;28;20037;-83
2022/06/30 05:17:50;;;;;;;6.85;2.47;;;19.60;99.90;;;;;;5025254;28;20057;-83
2022/06/30 05:20:16;;;;;;;3.05;2.55;;;19.70;99.90;;;;;;5023404;28;20026;-83
2022/06/30 05:22:42;;;;;;;4.72;2.47;;;19.60;99.90;;;;;;5006303;28;20076;-84
2022/06/30 05:27:52;;;;;;;4.55;2.28;;;19.80;99.90;;;;;;5031006;28;20036;-83
2022/06/30 05:30:18;;;;;;;2.55;2.30;;;19.90;99.90;;;;;;5005847;28;20045;-84
2022/06/30 05:32:44;;;;;;;3.22;2.42;;;19.90;99.90;;;;;;5003871;28;20137;-83
2022/06/30 05:35:11;;;;;;;3.63;2.28;;;19.90;99.90;;;;;;4990842;28;20044;-86
2022/06/30 05:37:36;;;;;;;6.47;2.60;;;19.90;99.90;;;;;;5005198;28;20030;-83
2022/06/30 05:40:03;;;;;;;4.47;2.42;;;20.00;99.90;;;;;;5005428;28;20469;-82
2022/06/30 05:42:29;;;;;;;8.07;2.67;;;20.00;99.90;;;;;;5005018;28;20053;-84
2022/06/30 05:44:55;;;;;;;3.78;2.40;;;20.00;99.90;;;;;;5019597;28;20018;-83
2022/06/30 05:47:20;;;;;;;2.83;2.33;;;20.10;99.90;;;;;;4985331;28;20478;-84
2022/06/30 05:49:46;;;;;;;4.80;2.30;;;20.10;99.90;;;;;;4986018;28;20084;-82
2022/06/30 05:52:11;;;;;;;2.45;2.25;;;20.20;99.90;;;;;;5014999;28;20037;-86
2022/06/30 05:54:37;;;;;;;4.60;2.20;;;20.20;99.90;;;;;;5022509;28;20097;-84
2022/06/30 05:57:03;;;;;;;3.42;2.47;;;20.20;99.90;;;;;;5022528;28;20034;-83
2022/06/30 05:59:32;;;;;;;5.68;2.55;;;20.30;99.90;;;;;;5005753;28;20048;-83
2022/06/30 06:01:59;;;;;;;2.47;2.28;;;20.30;99.90;;;;;;5022098;28;20398;-83
2022/06/30 06:04:25;;;;;;;6.95;2.92;;;20.30;99.90;;;;;;5004756;28;20383;-84
2022/06/30 06:06:50;;;;;;;5.95;2.80;;;20.30;99.90;;;;;;5002106;28;20485;-84
2022/06/30 06:09:16;;;;;;;4.88;2.50;;;20.40;99.90;;;;;;5007035;28;20030;-86
2022/06/30 06:11:42;;;;;;;5.78;2.83;;;20.50;99.90;;;;;;5002584;28;20033;-84
2022/06/30 06:14:08;;;;;;;3.72;2.50;;;20.50;99.90;;;;;;5005718;28;20121;-84
2022/06/30 06:16:34;;;;;;;7.85;3.08;;;20.60;99.90;;;;;;5023274;28;20112;-84
2022/06/30 06:18:59;;;;;;;5.00;2.28;;;20.60;99.90;;;;;;5023859;28;20085;-84
2022/06/30 06:21:26;;;;;;;3.80;2.70;;;20.70;99.90;;;;;;5023464;28;20029;-83
2022/06/30 06:23:52;;;;;;;2.50;2.22;;;20.80;99.90;;;;;;5006488;28;20022;-82
2022/06/30 06:26:18;;;;;;;5.82;2.65;;;20.80;99.90;;;;;;5022936;28;20024;-84
2022/06/30 06:31:28;;;;;;;4.65;2.38;;;20.90;99.90;;;;;;5015781;28;20053;-83
2022/06/30 06:33:54;;;;;;;6.07;2.42;;;20.90;99.90;;;;;;5015971;28;20026;-83
2022/06/30 06:36:19;;;;;;;3.80;1.98;;;21.00;99.90;;;;;;5011381;28;20466;-84
2022/06/30 06:38:46;;;;;;;3.15;2.28;;;21.00;99.90;;;;;;5012408;28;20034;-84
2022/06/30 06:41:11;;;;;;;4.10;2.42;;;21.10;99.90;;;;;;5014314;28;20088;-84
2022/06/30 06:43:37;;;;;;;3.63;2.13;;;21.20;99.90;;;;;;5015422;28;20112;-83
2022/06/30 06:46:03;;;;;;;3.50;2.60;;;21.20;99.90;;;;;;4997708;28;20036;-84
2022/06/30 06:48:29;;;;;;;2.65;2.30;;;21.30;99.90;;;;;;5012305;28;20037;-83
2022/06/30 06:50:54;;;;;;;6.57;2.40;;;21.30;99.90;;;;;;4997057;28;20478;-83
2022/06/30 06:53:20;;;;;;;5.10;2.50;;;21.40;99.90;;;;;;4998545;28;20414;-83
2022/06/30 06:55:46;;;;;;;4.07;2.40;;;21.40;99.90;;;;;;5014998;28;20030;-87
2022/06/30 06:58:12;;;;;;;5.25;2.80;;;21.50;99.90;;;;;;4992869;28;20092;-83
2022/06/30 07:00:37;;;;;;;4.82;2.70;;;21.60;99.90;;;;;;4997348;28;20036;-84
2022/06/30 07:03:03;;;;;;;5.40;2.50;;;21.60;99.90;;;;;;4995451;28;20124;-84
2022/06/30 07:05:29;;;;;;;5.30;3.08;;;21.70;99.90;;;;;;4988695;28;20027;-84
2022/06/30 07:07:59;;;;;;;4.47;2.65;;;21.80;99.90;;;;;;4995470;28;20030;-83
2022/06/30 07:10:25;;;;;;;4.20;2.60;;;21.80;99.90;;;;;;4992920;28;20037;-84
2022/06/30 07:12:52;;;;;;;3.20;2.40;;;21.80;99.90;;;;;;4996861;28;20030;-84
2022/06/30 07:15:18;;;;;;;5.32;2.42;;;21.90;99.90;;;;;;4984030;28;20030;-84
2022/06/30 07:17:43;;;;;;;3.83;2.70;;;22.00;99.90;;;;;;4997648;28;20045;-84
2022/06/30 07:20:09;;;;;;;3.03;2.38;;;22.10;99.90;;;;;;4997389;28;20054;-84
2022/06/30 07:22:35;;;;;;;3.85;2.50;;;22.10;99.90;;;;;;4996747;28;20034;-84
2022/06/30 07:25:02;;;;;;;3.45;2.75;;;22.10;99.90;;;;;;4997142;28;20033;-84
2022/06/30 07:27:27;;;;;;;3.20;2.35;;;22.20;99.90;;;;;;4997248;28;20092;-83
2022/06/30 07:29:53;;;;;;;3.92;2.63;;;22.20;99.90;;;;;;4997324;28;20475;-83
2022/06/30 07:32:19;;;;;;;6.85;2.30;;;22.20;99.90;;;;;;4997344;28;20084;-84
2022/06/30 07:34:44;;;;;;;3.97;2.30;;;22.30;99.90;;;;;;5014711;28;20522;-83
2022/06/30 07:37:10;;;;;;;3.63;2.83;;;22.30;99.90;;;;;;5011297;28;20479;-83
2022/06/30 07:39:35;;;;;;;4.15;2.40;;;22.40;99.90;;;;;;4977110;28;20038;-83
2022/06/30 07:42:02;;;;;;;3.88;2.58;;;22.40;99.90;;;;;;4989276;28;20033;-83
2022/06/30 07:44:27;;;;;;;4.43;2.47;;;22.50;99.90;;;;;;5013760;28;20109;-84
2022/06/30 07:46:53;;;;;;;5.28;2.30;;;22.50;99.90;;;;;;5011198;28;20038;-84
2022/06/30 07:49:18;;;;;;;4.20;2.38;;;22.50;99.90;;;;;;5008232;28;20048;-84
2022/06/30 07:51:44;;;;;;;3.88;2.25;;;22.60;99.90;;;;;;4997575;28;20156;-84
2022/06/30 07:54:10;;;;;;;4.15;2.30;;;22.60;99.90;;;;;;5002715;28;20038;-84
2022/06/30 07:56:36;;;;;;;4.53;2.13;;;22.70;99.90;;;;;;4997360;28;20021;-84
2022/06/30 07:59:01;;;;;;;5.00;2.20;;;22.70;99.90;;;;;;4989369;28;20045;-84
2022/06/30 08:01:27;;;;;;;2.97;2.20;;;22.80;99.90;;;;;;4995002;28;20034;-84
2022/06/30 08:03:53;;;;;;;3.75;2.25;;;22.90;99.90;;;;;;5013838;28;20097;-84
2022/06/30 08:06:18;;;;;;;2.95;2.20;;;23.00;99.90;;;;;;5013152;28;20030;-86
2022/06/30 08:08:44;;;;;;;5.05;2.40;;;23.00;99.90;;;;;;4996868;28;20034;-83
2022/06/30 08:11:10;;;;;;;4.93;2.35;;;23.00;99.90;;;;;;4996961;28;20455;-84
2022/06/30 08:13:37;;;;;;;7.00;2.70;;;23.00;99.90;;;;;;4996881;28;20026;-83
2022/06/30 08:16:03;;;;;;;5.00;2.33;;;23.00;99.90;;;;;;4996695;28;20037;-83
2022/06/30 08:18:29;;;;;;;2.60;2.10;;;23.00;99.90;;;;;;4995919;28;20052;-83
2022/06/30 08:20:55;;;;;;;2.78;2.22;;;23.20;99.90;;;;;;5014320;28;20374;-84
2022/06/30 08:23:21;;;;;;;2.25;1.77;;;23.30;99.90;;;;;;5014064;28;20026;-85
2022/06/30 08:25:47;;;;;;;3.15;1.83;;;23.30;99.90;;;;;;4996735;28;20026;-84
2022/06/30 08:28:12;;;;;;;4.57;2.00;;;23.30;99.90;;;;;;4996655;28;20593;-84
2022/06/30 08:30:38;;;;;;;4.60;1.73;;;23.40;99.90;;;;;;5011363;28;20046;-85
2022/06/30 08:33:04;;;;;;;6.85;2.05;;;23.50;99.90;;;;;;4996754;28;20064;-84
2022/06/30 08:35:30;;;;;;;6.50;1.98;;;23.70;99.90;;;;;;4996263;28;20022;-85
2022/06/30 08:37:56;;;;;;;1.92;1.60;;;23.70;99.40;;;;;;5013919;28;20041;-84
2022/06/30 08:43:09;;;;;;;4.35;1.77;;;23.80;99.80;;;;;;5014244;28;20041;-85
2022/06/30 08:45:35;;;;;;;3.35;2.00;;;23.80;99.10;;;;;;4996020;28;20030;-83
2022/06/30 08:48:01;;;;;;;3.13;1.65;;;23.80;99.10;;;;;;5014040;28;20494;-84
2022/06/30 08:50:27;;;;;;;3.63;2.08;;;23.80;99.80;;;;;;4996242;28;20022;-84
2022/06/30 08:52:55;;;;;;;5.13;2.53;;;23.80;99.90;;;;;;4996740;28;20026;-85
2022/06/30 08:55:28;;;;;;;2.85;2.05;;;23.80;99.90;;;;;;4995622;28;20030;-86
2022/06/30 08:58:00;;;;;;;7.18;2.40;;;23.90;99.90;;;;;;4976971;28;20472;-83
2022/06/30 09:00:27;;;;;;;7.00;2.55;;;24.00;99.90;;;;;;5007256;28;20034;-83
2022/06/30 09:02:52;;;;;;;3.97;2.15;;;24.10;99.90;;;;;;5013823;28;20037;-84
2022/06/30 09:05:18;;;;;;;4.10;2.50;;;24.20;99.90;;;;;;5013716;28;20026;-84
2022/06/30 09:07:43;;;;;;;4.70;2.35;;;24.30;99.90;;;;;;5012807;28;20080;-85
2022/06/30 09:10:09;;;;;;;5.13;2.85;;;24.30;99.90;;;;;;4996785;28;20402;-84
2022/06/30 09:12:35;;;;;;;5.20;2.50;;;24.40;99.70;;;;;;5012724;28;20489;-83
2022/06/30 09:15:01;;;;;;;5.93;2.65;;;24.40;99.20;;;;;;4996626;28;20041;-84
2022/06/30 09:17:29;;;;;;;8.10;2.10;;;24.40;99.30;;;;;;4996004;28;20455;-83
2022/06/30 09:20:00;;;;;;;3.50;2.30;;;24.30;98.60;;;;;;4996392;28;20041;-83
2022/06/30 09:22:31;;;;;;;3.78;2.30;;;24.40;98.30;;;;;;4998065;28;20022;-85
2022/06/30 09:25:11;;;;;;;4.40;2.23;;;24.40;98.60;;;;;;5014698;28;20029;-84
2022/06/30 09:27:39;;;;;;;5.38;2.10;;;24.50;98.90;;;;;;5009447;28;20023;-84
2022/06/30 09:30:13;;;;;;;2.70;2.35;;;24.60;98.60;;;;;;4998720;28;20562;-83
2022/06/30 09:33:05;;;;;;;3.50;2.25;;;24.60;97.70;;;;;;4998910;28;20042;-84
2022/06/30 09:35:31;;;;;;;4.93;2.00;;;24.70;97.00;;;;;;5016765;28;20050;-85
2022/06/30 09:38:02;;;;;;;4.38;2.22;;;24.80;97.60;;;;;;5016749;28;20065;-84
2022/06/30 09:43:31;;;;;;;2.53;1.67;;;24.90;96.60;;;;;;5008906;28;20088;-84
2022/06/30 09:45:57;;;;;;;3.97;1.77;;;25.10;94.90;;;;;;5016012;28;20053;-85
2022/06/30 09:48:26;;;;;;;3.28;2.00;;;25.10;94.90;;;;;;4998052;28;20037;-87
2022/06/30 09:51:03;;;;;;;4.15;2.13;;;25.10;95.00;;;;;;4996313;28;20018;-85
2022/06/30 09:53:31;;;;;;;4.55;2.00;;;25.20;96.50;;;;;;5016431;28;20029;-85
2022/06/30 09:56:13;;;;;;;1.80;1.70;;;25.20;95.00;;;;;;5000671;28;20117;-84
2022/06/30 09:58:42;;;;;;;2.97;1.90;;;25.20;94.40;;;;;;5001309;28;20037;-84
2022/06/30 10:01:10;;;;;;;3.47;1.98;;;25.30;95.20;;;;;;4999672;28;20175;-84
2022/06/30 10:03:47;;;;;;;2.58;1.70;;;25.50;94.70;;;;;;4998742;28;20038;-83
2022/06/30 10:06:15;;;;;;;2.53;1.70;;;25.80;94.90;;;;;;4999392;28;20044;-84
2022/06/30 10:08:42;;;;;;;3.35;1.80;;;26.00;94.50;;;;;;5000212;28;20060;-84
2022/06/30 10:11:08;;;;;;;3.55;1.80;;;26.10;93.90;;;;;;4997749;28;20458;-85
2022/06/30 10:13:39;;;;;;;4.20;2.00;;;26.00;93.60;;;;;;4998609;28;20034;-85
2022/06/30 10:16:06;;;;;;;4.07;2.40;;;26.00;92.90;;;;;;4997675;28;20030;-85
2022/06/30 10:18:39;;;;;;;4.05;2.15;;;25.90;92.70;;;;;;4993324;28;20049;-87
2022/06/30 10:21:05;;;;;;;1.75;1.65;;;25.80;92.30;;;;;;5000180;28;20022;-85
2022/06/30 10:23:32;;;;;;;2.72;2.00;;;25.80;92.40;;;;;;4999964;28;20053;-84
2022/06/30 10:25:58;;;;;;;4.53;2.05;;;25.80;92.40;;;;;;4982069;28;20022;-84
2022/06/30 10:28:27;;;;;;;4.70;2.00;;;25.90;92.90;;;;;;4981198;28;20121;-87
2022/06/30 10:31:27;;;;;;;3.08;1.80;;;26.00;91.80;;;;;;5018632;28;20081;-85
2022/06/30 10:34:15;;;;;;;1.85;1.60;;;26.10;91.30;;;;;;5004172;28;20053;-85
2022/06/30 10:37:18;;;;;;;4.22;1.90;;;26.20;92.70;;;;;;4997053;28;20376;-84
2022/06/30 10:39:52;;;;;;;6.10;3.90;;;26.20;92.60;;;;;;4982559;28;20696;-84
2022/06/30 10:42:50;;;;;;;4.20;2.15;;;26.40;92.80;;;;;;4982481;28;20058;-84
2022/06/30 10:45:31;;;;;;;4.55;2.67;;;26.60;93.90;;;;;;4998514;28;20109;-86
2022/06/30 10:48:05;;;;;;;3.08;2.30;;;26.70;92.90;;;;;;4999574;28;20037;-85
2022/06/30 10:50:39;;;;;;;2.67;1.92;;;26.80;92.50;;;;;;5000380;28;20054;-84
2022/06/30 10:53:17;;;;;;;2.97;2.00;;;26.90;92.70;;;;;;4997373;28;20061;-85
2022/06/30 10:55:44;;;;;;;3.58;2.00;;;26.90;92.30;;;;;;5004371;28;20099;-85
2022/06/30 10:58:11;;;;;;;3.95;2.10;;;27.00;92.10;;;;;;4987675;28;20083;-84
2022/06/30 11:01:02;;;;;;;5.05;2.10;;;27.20;91.70;;;;;;4999516;28;20029;-86
2022/06/30 11:03:50;;;;;;;3.15;2.05;;;27.40;91.00;;;;;;4985897;28;20441;-87
2022/06/30 11:06:16;;;;;;;3.85;2.60;;;27.40;90.00;;;;;;4999881;28;20038;-85
2022/06/30 11:08:47;;;;;;;7.32;2.30;;;27.30;89.30;;;;;;5013721;28;20126;-87
2022/06/30 11:11:24;;;;;;;2.83;2.13;;;27.40;88.40;;;;;;4997242;28;20022;-89
2022/06/30 11:14:07;;;;;;;2.83;2.40;;;27.30;88.10;;;;;;4995673;28;20034;-85
2022/06/30 11:16:35;;;;;;;3.15;2.03;;;27.20;89.10;;;;;;5014376;28;20116;-88
2022/06/30 11:19:04;;;;;;;4.65;2.05;;;27.20;90.00;;;;;;4994733;28;20106;-86
2022/06/30 11:21:31;;;;;;;5.18;2.08;;;27.20;89.90;;;;;;4993744;28;20029;-87
2022/06/30 11:24:00;;;;;;;3.67;2.10;;;27.20;88.80;;;;;;4995264;28;20034;-86
2022/06/30 11:29:14;;;;;;;5.30;2.15;;;27.40;88.30;;;;;;4997277;28;20041;-86
2022/06/30 11:31:41;;;;;;;4.20;1.90;;;27.50;89.00;;;;;;4996699;28;20056;-85
2022/06/30 11:34:14;;;;;;;3.95;2.10;;;27.60;88.10;;;;;;4984293;28;20031;-86
2022/06/30 11:36:42;;;;;;;3.33;2.05;;;27.70;88.80;;;;;;4993940;28;20018;-88
2022/06/30 11:39:20;;;;;;;5.38;2.50;;;27.80;89.10;;;;;;4992373;28;20034;-87
2022/06/30 11:41:57;;;;;;;3.53;2.22;;;27.80;88.00;;;;;;4977570;28;20428;-86
2022/06/30 11:44:28;;;;;;;3.15;2.13;;;27.90;85.70;;;;;;4977360;28;20109;-89
2022/06/30 11:46:55;;;;;;;;;;;27.90;85.50;;;;;;4984735;28;20025;-86
2022/06/30 11:49:22;;;;;;;2.50;1.40;;;27.90;85.30;;;;;;5001259;28;19988;-86
2022/06/30 11:51:48;;;;;;;2.80;2.10;;;27.90;84.80;;;;;;5010403;28;20032;-87
2022/06/30 11:54:16;;;;;;;4.65;2.30;;;27.80;86.00;;;;;;4983016;28;20030;-87
2022/06/30 11:56:53;;;;;;;2.05;1.85;;;27.80;84.90;;;;;;5005624;28;20092;-86
2022/06/30 11:59:19;;;;;;;2.80;1.90;;;27.80;84.20;;;;;;4995627;28;20037;-86
2022/06/30 12:02:05;;;;;;;5.47;2.22;;;27.80;85.60;;;;;;5004189;28;20037;-87
2022/06/30 12:04:31;;;;;;;4.30;2.17;;;27.80;85.20;;;;;;4980976;28;20031;-86
2022/06/30 12:06:57;;;;;;;1.95;1.70;;;27.90;84.40;;;;;;5002152;28;20025;-88
2022/06/30 12:09:22;;;;;;;3.72;2.10;;;27.90;85.00;;;;;;4978302;28;20030;-87
2022/06/30 12:11:50;;;;;;;5.38;2.22;;;27.90;86.10;;;;;;4981012;28;20026;-87
2022/06/30 12:14:15;;;;;;;6.30;2.90;;;27.90;85.00;;;;;;4981336;28;20412;-85
2022/06/30 12:16:41;;;;;;;4.53;2.15;;;27.90;85.80;;;;;;4981334;28;20034;-87
2022/06/30 12:19:07;;;;;;;2.30;2.00;;;28.00;85.70;;;;;;4995503;28;20374;-86
2022/06/30 12:21:34;;;;;;;4.97;2.00;;;28.10;85.00;;;;;;4994426;28;20030;-86
2022/06/30 12:24:00;;;;;;;4.40;2.25;;;28.30;84.40;;;;;;4977599;28;20057;-86
2022/06/30 12:26:26;;;;;;;3.40;2.67;;;28.40;83.50;;;;;;4977061;28;20022;-89
2022/06/30 12:28:55;;;;;;;6.72;2.10;;;28.50;83.90;;;;;;4977197;28;20791;-87
2022/06/30 12:31:25;;;;;;;4.10;2.08;;;28.50;82.50;;;;;;4980613;28;20050;-87
2022/06/30 12:33:51;;;;;;;2.25;2.00;;;28.50;83.00;;;;;;5011825;28;20454;-86
2022/06/30 12:36:18;;;;;;;4.15;2.08;;;28.50;83.60;;;;;;4996824;28;20026;-87
2022/06/30 12:38:43;;;;;;;4.53;2.03;;;28.60;82.40;;;;;;4983717;28;20066;-92
2022/06/30 12:41:11;;;;;;;4.35;2.03;;;28.50;82.00;;;;;;4996648;28;20525;-90
2022/06/30 12:44:03;;;;;;;3.33;1.90;;;28.60;82.10;;;;;;5000030;28;20485;-90
2022/06/30 12:46:39;;;;;;;2.97;1.95;;;28.70;82.00;;;;;;4997614;28;20038;-91
2022/06/30 12:49:05;;;;;;;5.60;2.47;;;28.60;81.00;;;;;;5017636;28;20033;-89
2022/06/30 12:51:31;;;;;;;3.83;2.22;;;28.70;81.30;;;;;;5015551;28;20036;-90
2022/06/30 12:54:00;;;;;;;4.40;2.08;;;28.80;81.20;;;;;;5007145;28;20022;-90
2022/06/30 12:56:27;;;;;;;4.25;1.83;;;28.80;80.00;;;;;;4998786;28;20044;-90
2022/06/30 12:59:13;;;;;;;5.15;1.75;;;29.00;80.20;;;;;;5004886;28;20045;-91
2022/06/30 13:01:52;;;;;;;3.75;2.00;;;29.10;79.40;;;;;;4999900;28;20475;-91
2022/06/30 13:04:23;;;;;;;3.00;2.15;;;29.20;82.30;;;;;;5017737;28;20072;-90
2022/06/30 13:06:51;;;;;;;4.47;2.70;;;29.20;80.30;;;;;;4999969;28;20026;-90
2022/06/30 13:09:28;;;;;;;4.90;2.33;;;29.30;79.40;;;;;;5000461;28;20129;-89
2022/06/30 13:11:57;;;;;;;2.30;2.08;;;29.40;79.40;;;;;;5017431;28;20375;-89
2022/06/30 13:14:25;;;;;;;4.43;2.78;;;29.50;78.10;;;;;;4999656;28;20043;-88